createdAt,value
2023-05-07T00:00:23.932Z,9.65
2023-05-07T00:03:12.644Z,14.95
2023-05-07T00:05:40.312Z,7.55
2023-05-07T00:08:07.781Z,10.27
2023-05-07T00:10:35.030Z,7.30
2023-05-07T00:13:02.626Z,13.05
2023-05-07T00:15:29.921Z,9.48
2023-05-07T00:17:58.533Z,7.75
2023-05-07T00:20:25.960Z,8.38
2023-05-07T00:22:53.588Z,9.80
2023-05-07T00:25:20.854Z,7.90
2023-05-07T00:27:48.335Z,7.68
2023-05-07T00:30:15.922Z,6.93
2023-05-07T00:32:43.571Z,11.63
2023-05-07T00:35:11.094Z,7.97
2023-05-07T00:37:38.812Z,12.23
2023-05-07T00:40:08.417Z,11.35
2023-05-07T00:42:36.229Z,7.65
2023-05-07T00:45:03.973Z,9.80
2023-05-07T00:47:32.640Z,8.40
2023-05-07T00:50:00.068Z,10.60
2023-05-07T00:52:28.814Z,9.50
2023-05-07T00:54:56.457Z,13.50
2023-05-07T00:57:26.441Z,13.65
2023-05-07T00:59:53.907Z,12.25
2023-05-07T01:02:21.581Z,8.23
2023-05-07T01:04:48.786Z,13.23
2023-05-07T01:07:17.045Z,15.15
2023-05-07T01:09:44.333Z,13.30
2023-05-07T01:12:12.073Z,13.88
2023-05-07T01:14:39.428Z,12.73
2023-05-07T01:17:07.861Z,9.43
2023-05-07T01:19:35.900Z,11.18
2023-05-07T01:22:10.477Z,11.38
2023-05-07T01:24:47.464Z,12.18
2023-05-07T01:27:16.238Z,11.80
2023-05-07T01:29:44.002Z,10.80
2023-05-07T01:32:14.284Z,10.80
2023-05-07T01:34:41.984Z,9.23
2023-05-07T01:37:09.829Z,9.65
2023-05-07T01:39:40.923Z,11.60
2023-05-07T01:42:08.581Z,7.50
2023-05-07T01:44:36.176Z,10.52
2023-05-07T01:47:04.490Z,15.68
2023-05-07T01:49:31.930Z,8.40
2023-05-07T01:52:00.300Z,8.40
2023-05-07T01:54:31.638Z,11.43
2023-05-07T01:57:01.161Z,10.52
2023-05-07T01:59:28.458Z,11.55
2023-05-07T02:01:56.297Z,11.32
2023-05-07T02:04:23.670Z,15.80
2023-05-07T02:06:51.993Z,10.80
2023-05-07T02:09:20.494Z,12.38
2023-05-07T02:11:50.402Z,11.10
2023-05-07T02:14:21.219Z,8.85
2023-05-07T02:16:48.982Z,9.88
2023-05-07T02:19:17.299Z,10.57
2023-05-07T02:21:44.922Z,9.90
2023-05-07T02:24:12.158Z,18.27
2023-05-07T02:26:40.528Z,10.65
2023-05-07T02:29:08.119Z,14.02
2023-05-07T02:31:35.782Z,11.32
2023-05-07T02:34:03.322Z,8.40
2023-05-07T02:36:31.225Z,8.55
2023-05-07T02:39:04.879Z,11.55
2023-05-07T02:41:33.065Z,9.02
2023-05-07T02:44:00.339Z,12.98
2023-05-07T02:46:28.122Z,8.73
2023-05-07T02:49:01.969Z,10.45
2023-05-07T02:51:31.856Z,8.50
2023-05-07T02:54:02.313Z,10.48
2023-05-07T02:56:31.364Z,10.82
2023-05-07T02:58:58.968Z,8.73
2023-05-07T03:01:30.364Z,7.32
2023-05-07T03:04:06.655Z,7.63
2023-05-07T03:06:34.305Z,12.68
2023-05-07T03:09:01.581Z,13.20
2023-05-07T03:11:29.533Z,18.35
2023-05-07T03:13:56.724Z,7.05
2023-05-07T03:16:24.352Z,12.00
2023-05-07T03:18:51.804Z,10.52
2023-05-07T03:21:19.322Z,8.65
2023-05-07T03:23:46.558Z,8.23
2023-05-07T03:26:14.502Z,10.30
2023-05-07T03:28:42.546Z,7.55
2023-05-07T03:31:13.447Z,11.48
2023-05-07T03:33:55.442Z,9.90
2023-05-07T03:36:23.698Z,9.18
2023-05-07T03:38:51.643Z,8.05
2023-05-07T03:41:22.113Z,7.60
2023-05-07T03:43:49.482Z,10.85
2023-05-07T03:46:17.395Z,8.80
2023-05-07T03:48:45.713Z,7.82
2023-05-07T03:51:15.167Z,8.45
2023-05-07T03:53:42.656Z,7.78
2023-05-07T03:56:10.549Z,10.60
2023-05-07T03:58:40.214Z,8.18
2023-05-07T04:01:10.809Z,7.78
2023-05-07T04:03:38.278Z,8.85
2023-05-07T04:06:06.209Z,7.13
2023-05-07T04:08:35.634Z,8.57
2023-05-07T04:11:04.508Z,8.68
2023-05-07T04:13:33.725Z,6.75
2023-05-07T04:16:05.302Z,7.18
2023-05-07T04:18:35.344Z,9.15
2023-05-07T04:21:02.932Z,9.60
2023-05-07T04:23:30.321Z,8.00
2023-05-07T04:26:01.935Z,7.43
2023-05-07T04:28:37.666Z,9.85
2023-05-07T04:31:05.479Z,9.73
2023-05-07T04:33:34.929Z,5.47
2023-05-07T04:36:04.486Z,9.57
2023-05-07T04:38:35.133Z,8.43
2023-05-07T04:41:06.361Z,6.57
2023-05-07T04:43:36.958Z,6.95
2023-05-07T04:46:04.512Z,9.65
2023-05-07T04:48:31.995Z,8.98
2023-05-07T04:51:01.156Z,6.53
2023-05-07T04:53:28.687Z,9.27
2023-05-07T04:55:58.499Z,7.90
2023-05-07T04:58:32.963Z,6.53
2023-05-07T05:01:01.526Z,10.15
2023-05-07T05:03:29.672Z,5.00
2023-05-07T05:06:00.428Z,6.90
2023-05-07T05:08:31.675Z,3.47
2023-05-07T05:10:59.321Z,7.70
2023-05-07T05:13:26.499Z,6.00
2023-05-07T05:15:54.211Z,5.25
2023-05-07T05:18:21.967Z,5.22
2023-05-07T05:20:49.665Z,3.92
2023-05-07T05:23:17.296Z,6.25
2023-05-07T05:25:45.394Z,5.07
2023-05-07T05:28:15.006Z,4.72
2023-05-07T05:30:42.545Z,3.78
2023-05-07T05:33:10.325Z,3.92
2023-05-07T05:35:38.001Z,9.38
2023-05-07T05:38:08.026Z,5.95
2023-05-07T05:40:35.635Z,5.40
2023-05-07T05:43:03.254Z,4.13
2023-05-07T05:45:31.094Z,4.55
2023-05-07T05:47:58.825Z,4.65
2023-05-07T05:50:26.532Z,4.70
2023-05-07T05:52:55.250Z,6.10
2023-05-07T05:55:23.606Z,3.97
2023-05-07T05:57:51.892Z,5.13
2023-05-07T06:00:23.424Z,3.47
2023-05-07T06:02:58.694Z,2.85
2023-05-07T06:05:27.405Z,3.13
2023-05-07T06:07:57.255Z,4.88
2023-05-07T06:10:25.518Z,4.00
2023-05-07T06:12:53.062Z,5.53
2023-05-07T06:15:20.927Z,3.40
2023-05-07T06:17:50.345Z,4.15
2023-05-07T06:20:18.380Z,5.97
2023-05-07T06:22:45.995Z,5.32
2023-05-07T06:25:15.851Z,3.35
2023-05-07T06:27:44.284Z,3.60
2023-05-07T06:30:12.438Z,2.53
2023-05-07T06:32:42.032Z,2.85
2023-05-07T06:35:10.483Z,2.63
2023-05-07T06:37:40.656Z,5.28
2023-05-07T06:40:10.077Z,3.08
2023-05-07T06:42:39.805Z,8.07
2023-05-07T06:45:39.592Z,5.13
2023-05-07T06:48:09.789Z,3.05
2023-05-07T06:50:47.228Z,4.28
2023-05-07T06:53:14.534Z,3.38
2023-05-07T06:55:42.814Z,5.78
2023-05-07T06:58:11.052Z,4.13
2023-05-07T07:00:39.167Z,3.45
2023-05-07T07:03:06.467Z,5.28
2023-05-07T07:05:34.185Z,3.10
2023-05-07T07:08:03.997Z,5.60
2023-05-07T07:10:31.605Z,4.57
2023-05-07T07:12:59.074Z,7.57
2023-05-07T07:15:27.574Z,6.35
2023-05-07T07:17:56.540Z,7.43
2023-05-07T07:20:25.459Z,7.28
2023-05-07T07:22:52.998Z,6.55
2023-05-07T07:25:20.695Z,8.57
2023-05-07T07:27:49.304Z,5.40
2023-05-07T07:30:17.642Z,7.50
2023-05-07T07:32:48.356Z,5.40
2023-05-07T07:35:17.149Z,5.88
2023-05-07T07:37:45.490Z,5.93
2023-05-07T07:40:15.218Z,6.47
2023-05-07T07:42:42.761Z,5.47
2023-05-07T07:45:11.772Z,4.65
2023-05-07T07:47:43.293Z,5.57
2023-05-07T07:50:12.045Z,5.95
2023-05-07T07:52:43.075Z,6.35
2023-05-07T07:55:11.861Z,6.00
2023-05-07T07:57:40.150Z,5.28
2023-05-07T08:00:08.645Z,5.22
2023-05-07T08:02:44.192Z,4.10
2023-05-07T08:05:18.748Z,5.32
2023-05-07T08:07:52.948Z,7.25
2023-05-07T08:10:24.459Z,4.75
2023-05-07T08:12:57.963Z,4.63
2023-05-07T08:15:25.597Z,4.97
2023-05-07T08:17:52.891Z,4.85
2023-05-07T08:20:21.462Z,4.03
2023-05-07T08:22:48.992Z,5.82
2023-05-07T08:25:16.684Z,5.32
2023-05-07T08:27:45.421Z,4.93
2023-05-07T08:30:14.547Z,5.95
2023-05-07T08:32:42.272Z,3.65
2023-05-07T08:35:10.845Z,3.10
2023-05-07T08:37:38.349Z,2.70
2023-05-07T08:40:10.204Z,5.30
2023-05-07T08:42:41.529Z,3.75
2023-05-07T08:45:11.772Z,2.63
2023-05-07T08:47:53.267Z,5.93
2023-05-07T08:50:23.625Z,3.38
2023-05-07T08:52:52.212Z,4.10
2023-05-07T08:55:21.634Z,6.53
2023-05-07T08:57:49.551Z,7.85
2023-05-07T09:00:18.617Z,4.80
2023-05-07T09:02:49.623Z,2.95
2023-05-07T09:05:17.404Z,9.18
2023-05-07T09:07:44.987Z,5.50
2023-05-07T09:10:14.686Z,4.38
2023-05-07T09:12:43.643Z,2.80
2023-05-07T09:15:13.861Z,5.78
2023-05-07T09:17:43.461Z,3.33
2023-05-07T09:20:11.459Z,4.50
2023-05-07T09:22:40.154Z,5.70
2023-05-07T09:25:12.034Z,3.67
2023-05-07T09:27:40.426Z,6.07
2023-05-07T09:30:08.419Z,5.22
2023-05-07T09:32:39.358Z,6.28
2023-05-07T09:35:18.018Z,3.72
2023-05-07T09:37:49.059Z,2.78
2023-05-07T09:40:31.382Z,3.30
2023-05-07T09:43:14.798Z,4.82
2023-05-07T09:45:56.030Z,2.58
2023-05-07T09:48:26.880Z,3.03
2023-05-07T09:51:01.001Z,4.88
2023-05-07T09:53:32.088Z,3.35
2023-05-07T09:56:05.156Z,1.73
2023-05-07T09:58:34.624Z,4.22
2023-05-07T10:01:03.649Z,4.10
2023-05-07T10:03:33.728Z,2.58
2023-05-07T10:06:06.335Z,4.35
2023-05-07T10:08:34.372Z,3.65
2023-05-07T10:11:05.156Z,2.13
2023-05-07T10:13:36.797Z,3.85
2023-05-07T10:16:05.878Z,5.95
2023-05-07T10:18:40.559Z,3.85
2023-05-07T10:21:24.850Z,4.10
2023-05-07T10:24:01.553Z,4.53
2023-05-07T10:26:33.391Z,5.45
2023-05-07T10:29:39.398Z,4.20
2023-05-07T10:32:28.202Z,3.60
2023-05-07T10:35:00.187Z,7.03
2023-05-07T10:37:28.023Z,8.85
2023-05-07T10:39:56.058Z,3.05
2023-05-07T10:42:24.433Z,4.47
2023-05-07T10:44:54.390Z,4.95
2023-05-07T10:47:26.266Z,5.18
2023-05-07T10:50:06.590Z,4.35
2023-05-07T10:52:37.825Z,3.90
2023-05-07T10:55:18.814Z,3.50
2023-05-07T10:57:57.450Z,4.25
2023-05-07T11:00:38.632Z,5.55
2023-05-07T11:03:11.846Z,6.68
2023-05-07T11:06:17.095Z,5.95
2023-05-07T11:09:02.298Z,3.67
2023-05-07T11:11:54.213Z,3.30
2023-05-07T11:14:42.365Z,2.83
2023-05-07T11:17:13.683Z,4.03
2023-05-07T11:19:54.092Z,4.13
2023-05-07T11:22:34.193Z,6.18
2023-05-07T11:25:22.526Z,4.43
2023-05-07T11:28:06.330Z,4.30
2023-05-07T11:30:35.580Z,3.88
2023-05-07T11:33:05.687Z,9.02
2023-05-07T11:35:37.178Z,3.50
2023-05-07T11:38:07.257Z,5.40
2023-05-07T11:40:36.296Z,5.65
2023-05-07T11:43:12.245Z,5.00
2023-05-07T11:45:39.839Z,4.45
2023-05-07T11:48:07.113Z,4.80
2023-05-07T11:50:34.598Z,7.10
2023-05-07T11:53:01.836Z,5.15
2023-05-07T11:55:29.644Z,4.22
2023-05-07T11:57:56.822Z,3.42
2023-05-07T12:00:24.318Z,5.80
2023-05-07T12:02:51.785Z,5.30
2023-05-07T12:05:19.314Z,3.83
2023-05-07T12:07:46.585Z,5.07
2023-05-07T12:10:14.721Z,6.25
2023-05-07T12:12:45.693Z,3.35
2023-05-07T12:15:17.514Z,5.90
2023-05-07T12:17:45.508Z,2.88
2023-05-07T12:20:14.000Z,4.28
2023-05-07T12:22:42.206Z,6.32
2023-05-07T12:25:10.574Z,4.50
2023-05-07T12:27:40.286Z,5.38
2023-05-07T12:30:11.644Z,5.90
2023-05-07T12:32:38.997Z,4.05
2023-05-07T12:35:07.846Z,4.40
2023-05-07T12:37:36.888Z,5.13
2023-05-07T12:40:09.889Z,2.78
2023-05-07T12:42:38.548Z,4.70
2023-05-07T12:45:24.260Z,4.80
2023-05-07T12:47:51.566Z,3.83
2023-05-07T12:50:19.249Z,4.22
2023-05-07T12:52:48.802Z,4.95
2023-05-07T12:55:17.839Z,5.13
2023-05-07T12:57:49.676Z,5.25
2023-05-07T13:00:17.534Z,5.70
2023-05-07T13:02:46.531Z,4.15
2023-05-07T13:05:14.461Z,3.08
2023-05-07T13:07:42.778Z,5.65
2023-05-07T13:10:10.995Z,3.67
2023-05-07T13:12:38.224Z,6.30
2023-05-07T13:15:06.279Z,8.30
2023-05-07T13:17:33.559Z,4.40
2023-05-07T13:20:01.196Z,3.90
2023-05-07T13:22:28.417Z,4.82
2023-05-07T13:24:55.906Z,4.03
2023-05-07T13:27:23.221Z,4.57
2023-05-07T13:29:50.930Z,4.22
2023-05-07T13:32:18.240Z,3.30
2023-05-07T13:34:45.873Z,4.60
2023-05-07T13:37:13.078Z,5.13
2023-05-07T13:39:41.940Z,3.20
2023-05-07T13:42:09.198Z,3.50
2023-05-07T13:44:36.796Z,4.57
2023-05-07T13:47:03.996Z,3.30
2023-05-07T13:49:31.642Z,3.33
2023-05-07T13:51:58.910Z,6.13
2023-05-07T13:54:26.413Z,5.43
2023-05-07T13:56:53.593Z,3.42
2023-05-07T13:59:21.808Z,4.05
2023-05-07T14:01:49.109Z,5.00
2023-05-07T14:04:16.629Z,4.28
2023-05-07T14:06:44.510Z,4.30
2023-05-07T14:09:14.372Z,4.35
2023-05-07T14:11:42.047Z,5.57
2023-05-07T14:14:12.894Z,6.95
2023-05-07T14:16:40.226Z,4.32
2023-05-07T14:19:07.714Z,5.10
2023-05-07T14:21:35.028Z,7.57
2023-05-07T14:24:02.603Z,9.02
2023-05-07T14:26:30.340Z,5.28
2023-05-07T14:28:59.439Z,7.28
2023-05-07T14:31:27.053Z,7.63
2023-05-07T14:33:54.727Z,5.50
2023-05-07T14:36:23.879Z,6.75
2023-05-07T14:38:51.462Z,7.93
2023-05-07T14:41:18.775Z,11.75
2023-05-07T14:43:50.990Z,7.40
2023-05-07T14:46:19.259Z,6.53
2023-05-07T14:48:47.358Z,10.80
2023-05-07T14:51:14.922Z,5.68
2023-05-07T14:53:43.089Z,8.48
2023-05-07T14:56:10.688Z,8.32
2023-05-07T14:58:39.031Z,8.18
2023-05-07T15:01:06.277Z,6.97
2023-05-07T15:03:35.695Z,6.25
2023-05-07T15:06:03.837Z,8.40
2023-05-07T15:08:31.367Z,6.10
2023-05-07T15:10:58.639Z,6.15
2023-05-07T15:13:26.189Z,5.70
2023-05-07T15:15:53.464Z,5.20
2023-05-07T15:18:22.912Z,7.63
2023-05-07T15:20:50.523Z,4.18
2023-05-07T15:23:18.122Z,5.38
2023-05-07T15:25:50.283Z,4.97
2023-05-07T15:28:20.577Z,7.38
2023-05-07T15:30:47.906Z,5.25
2023-05-07T15:33:15.749Z,4.03
2023-05-07T15:35:43.016Z,2.97
2023-05-07T15:38:10.770Z,3.78
2023-05-07T15:40:42.640Z,4.28
2023-05-07T15:43:11.128Z,4.28
2023-05-07T15:45:42.529Z,3.90
2023-05-07T15:48:11.543Z,5.82
2023-05-07T15:50:39.292Z,6.13
2023-05-07T15:53:06.890Z,4.60
2023-05-07T15:55:34.501Z,4.63
2023-05-07T15:58:03.099Z,5.13
2023-05-07T16:00:30.733Z,5.50
2023-05-07T16:02:58.644Z,2.63
2023-05-07T16:05:26.083Z,6.72
2023-05-07T16:07:53.724Z,3.75
2023-05-07T16:10:20.960Z,2.55
2023-05-07T16:12:48.459Z,4.40
2023-05-07T16:15:15.859Z,3.10
2023-05-07T16:17:46.722Z,3.58
2023-05-07T16:20:15.486Z,5.43
2023-05-07T16:22:45.594Z,3.88
2023-05-07T16:25:14.819Z,3.55
2023-05-07T16:27:42.569Z,6.47
2023-05-07T16:30:10.172Z,8.07
2023-05-07T16:32:37.840Z,4.03
2023-05-07T16:35:06.454Z,4.65
2023-05-07T16:37:34.582Z,3.50
2023-05-07T16:40:02.710Z,3.95
2023-05-07T16:42:30.842Z,3.88
2023-05-07T16:44:58.084Z,3.65
2023-05-07T16:47:25.582Z,6.70
2023-05-07T16:49:53.043Z,4.15
2023-05-07T16:52:20.675Z,5.82
2023-05-07T16:54:48.128Z,4.65
2023-05-07T16:57:15.908Z,5.95
2023-05-07T16:59:43.215Z,6.45
2023-05-07T17:02:10.805Z,4.53
2023-05-07T17:04:38.138Z,3.60
2023-05-07T17:07:06.643Z,3.47
2023-05-07T17:09:34.321Z,4.35
2023-05-07T17:12:02.875Z,4.65
2023-05-07T17:14:30.086Z,4.65
2023-05-07T17:16:57.601Z,5.18
2023-05-07T17:19:24.770Z,4.70
2023-05-07T17:21:52.223Z,5.43
2023-05-07T17:24:19.392Z,5.40
2023-05-07T17:26:48.458Z,5.05
2023-05-07T17:29:15.764Z,7.13
2023-05-07T17:31:43.349Z,4.93
2023-05-07T17:34:10.648Z,3.35
2023-05-07T17:36:38.125Z,3.47
2023-05-07T17:39:05.311Z,3.08
2023-05-07T17:41:36.203Z,4.80
2023-05-07T17:44:04.024Z,7.72
2023-05-07T17:46:36.876Z,5.20
2023-05-07T17:49:16.239Z,4.65
2023-05-07T17:51:53.958Z,6.55
2023-05-07T17:54:24.347Z,6.68
2023-05-07T17:56:52.057Z,4.47
2023-05-07T17:59:19.648Z,3.08
2023-05-07T18:01:47.394Z,2.85
2023-05-07T18:04:14.905Z,4.53
2023-05-07T18:06:42.843Z,3.63
2023-05-07T18:09:10.203Z,6.10
2023-05-07T18:11:38.111Z,5.30
2023-05-07T18:14:05.527Z,2.45
2023-05-07T18:16:33.240Z,3.00
2023-05-07T18:19:00.615Z,2.65
2023-05-07T18:21:28.199Z,4.47
2023-05-07T18:23:55.389Z,3.75
2023-05-07T18:26:22.954Z,3.53
2023-05-07T18:28:50.184Z,4.00
2023-05-07T18:31:17.796Z,3.00
2023-05-07T18:33:45.038Z,5.13
2023-05-07T18:36:12.560Z,5.60
2023-05-07T18:38:39.859Z,4.90
2023-05-07T18:41:07.516Z,5.78
2023-05-07T18:43:34.772Z,7.03
2023-05-07T18:46:02.336Z,3.97
2023-05-07T18:48:29.639Z,5.00
2023-05-07T18:50:57.308Z,3.05
2023-05-07T18:53:24.945Z,3.05
2023-05-07T18:55:53.191Z,4.40
2023-05-07T18:58:20.689Z,2.20
2023-05-07T19:00:49.028Z,4.70
2023-05-07T19:03:17.281Z,2.78
2023-05-07T19:05:45.793Z,2.67
2023-05-07T19:08:13.565Z,3.75
2023-05-07T19:10:41.158Z,5.07
2023-05-07T19:13:08.435Z,3.58
2023-05-07T19:15:35.955Z,6.55
2023-05-07T19:18:03.508Z,4.22
2023-05-07T19:20:31.195Z,5.05
2023-05-07T19:22:58.442Z,3.47
2023-05-07T19:25:26.092Z,4.30
2023-05-07T19:27:53.298Z,4.97
2023-05-07T19:30:20.966Z,5.35
2023-05-07T19:32:48.373Z,4.88
2023-05-07T19:35:16.050Z,5.35
2023-05-07T19:37:43.359Z,2.78
2023-05-07T19:40:11.510Z,2.30
2023-05-07T19:42:38.755Z,4.03
2023-05-07T19:45:06.799Z,3.40
2023-05-07T19:47:34.339Z,2.55
2023-05-07T19:50:01.952Z,7.43
2023-05-07T19:52:29.149Z,4.55
2023-05-07T19:54:56.764Z,2.30
2023-05-07T19:57:24.012Z,3.25
2023-05-07T19:59:51.517Z,2.65
2023-05-07T20:02:18.829Z,4.18
2023-05-07T20:04:46.551Z,5.18
2023-05-07T20:07:14.017Z,4.00
2023-05-07T20:09:41.908Z,3.78
2023-05-07T20:12:09.198Z,3.45
2023-05-07T20:14:36.739Z,4.80
2023-05-07T20:17:04.041Z,2.92
2023-05-07T20:19:31.557Z,5.95
2023-05-07T20:21:58.756Z,3.53
2023-05-07T20:24:26.337Z,3.70
2023-05-07T20:26:53.586Z,5.97
2023-05-07T20:29:22.827Z,6.53
2023-05-07T20:31:50.190Z,5.28
2023-05-07T20:34:17.729Z,6.15
2023-05-07T20:36:46.425Z,4.95
2023-05-07T20:39:16.091Z,5.90
2023-05-07T20:41:46.453Z,9.90
2023-05-07T20:44:13.941Z,4.78
2023-05-07T20:46:41.244Z,6.20
2023-05-07T20:49:09.951Z,5.32
2023-05-07T20:51:37.461Z,5.82
2023-05-07T20:54:05.125Z,5.38
2023-05-07T20:56:32.397Z,4.78
2023-05-07T20:58:59.955Z,5.00
2023-05-07T21:01:27.311Z,3.88
2023-05-07T21:03:54.923Z,4.05
2023-05-07T21:06:22.110Z,5.78
2023-05-07T21:08:49.607Z,3.65
2023-05-07T21:11:17.027Z,9.40
2023-05-07T21:13:44.905Z,5.50
2023-05-07T21:16:12.420Z,4.32
2023-05-07T21:18:40.198Z,5.05
2023-05-07T21:21:08.583Z,4.00
2023-05-07T21:23:36.837Z,3.20
2023-05-07T21:26:04.400Z,4.93
2023-05-07T21:28:32.028Z,5.47
2023-05-07T21:30:59.252Z,6.93
2023-05-07T21:33:26.823Z,3.75
2023-05-07T21:35:54.243Z,5.43
2023-05-07T21:38:21.795Z,3.35
2023-05-07T21:40:49.078Z,4.47
2023-05-07T21:43:16.646Z,4.30
2023-05-07T21:45:43.988Z,3.30
2023-05-07T21:48:13.536Z,4.30
2023-05-07T21:50:40.831Z,4.15
2023-05-07T21:53:08.447Z,3.40
2023-05-07T21:55:35.883Z,4.65
2023-05-07T21:58:05.988Z,5.90
2023-05-07T22:00:33.787Z,9.93
2023-05-07T22:03:01.422Z,5.38
2023-05-07T22:05:28.826Z,6.20
2023-05-07T22:07:56.398Z,9.10
2023-05-07T22:10:24.118Z,9.48
2023-05-07T22:12:51.630Z,6.30
2023-05-07T22:15:19.039Z,8.77
2023-05-07T22:17:46.561Z,5.65
2023-05-07T22:20:14.253Z,9.68
2023-05-07T22:22:56.038Z,8.43
2023-05-07T22:25:24.387Z,5.32
2023-05-07T22:27:52.386Z,6.88
2023-05-07T22:30:19.644Z,6.38
2023-05-07T22:32:47.414Z,7.35
2023-05-07T22:35:15.056Z,6.10
2023-05-07T22:37:42.614Z,8.52
2023-05-07T22:40:10.450Z,7.03
2023-05-07T22:42:38.071Z,5.28
2023-05-07T22:45:05.784Z,8.15
2023-05-07T22:47:33.484Z,7.55
2023-05-07T22:50:01.099Z,5.05
2023-05-07T22:52:28.762Z,6.05
2023-05-07T22:54:55.961Z,9.07
2023-05-07T22:57:23.497Z,6.70
2023-05-07T22:59:54.619Z,8.40
2023-05-07T23:02:23.349Z,6.30
2023-05-07T23:04:50.636Z,7.60
2023-05-07T23:07:18.141Z,7.45
2023-05-07T23:09:45.496Z,7.32
2023-05-07T23:12:13.073Z,7.88
2023-05-07T23:14:40.333Z,6.28
2023-05-07T23:17:08.044Z,10.68
2023-05-07T23:19:35.339Z,7.18
2023-05-07T23:22:02.922Z,3.67
2023-05-07T23:24:30.095Z,4.43
2023-05-07T23:26:57.565Z,5.40
2023-05-07T23:29:24.805Z,4.25
2023-05-07T23:31:52.283Z,8.32
2023-05-07T23:34:24.094Z,6.65
2023-05-07T23:36:51.800Z,4.88
2023-05-07T23:39:19.591Z,3.67
2023-05-07T23:41:47.209Z,4.88
2023-05-07T23:44:16.625Z,6.15
2023-05-07T23:46:44.839Z,5.97
2023-05-07T23:49:12.295Z,4.75
2023-05-07T23:51:39.874Z,6.28
2023-05-07T23:54:07.384Z,4.35
2023-05-07T23:56:35.036Z,4.72
2023-05-07T23:59:02.227Z,7.53
